Terminal Aerodrome Forecast
Issued by NWS Flagstaff, AZ

Home | Current Version | Previous Version | Text Only | Print | Product List | Glossary On
Versions: 1 2 3 4 5 6 7 8 9 10 11 12 13 14 15 16 17 18 19 20 21 22 23 24 25
000
FTUS45 KFGZ 011126
TAFINW
TAF
KINW 011126Z 0112/0212 26008KT P6SM BKN012 OVC060
     FM011500 24007KT P6SM SCT030 BKN080
     FM011800 24012KT P6SM BKN080 BKN120
     FM020200 VRB05KT P6SM SCT060 BKN100=

USA.gov is the U.S. government's official web portal to all federal, state and local government web resources and services.